createdAt,value
2022-09-23T00:03:37.620Z,11.26
2022-09-23T00:08:42.932Z,11.07
2022-09-23T00:13:50.403Z,13.68
2022-09-23T00:18:54.679Z,13.89
2022-09-23T00:23:58.750Z,11.72
2022-09-23T00:29:02.740Z,11.64
2022-09-23T00:34:06.764Z,14.10
2022-09-23T00:39:10.905Z,13.74
2022-09-23T00:44:47.487Z,11.50
2022-09-23T00:50:23.695Z,10.00
2022-09-23T00:55:44.346Z,11.46
2022-09-23T01:00:48.835Z,13.74
2022-09-23T01:05:53.641Z,14.56
2022-09-23T01:11:01.609Z,12.45
2022-09-23T01:16:13.844Z,10.97
2022-09-23T01:21:57.791Z,12.94
2022-09-23T01:27:25.574Z,14.15
2022-09-23T01:32:56.640Z,12.64
2022-09-23T01:38:08.660Z,10.66
2022-09-23T01:43:36.027Z,10.74
2022-09-23T01:48:55.311Z,13.15
2022-09-23T01:54:16.555Z,13.99
2022-09-23T01:59:38.499Z,13.41
2022-09-23T02:05:18.876Z,11.15
2022-09-23T02:10:44.681Z,11.27
2022-09-23T02:15:57.323Z,13.42
2022-09-23T02:21:07.718Z,13.96
2022-09-23T02:26:31.424Z,11.97
2022-09-23T02:32:02.214Z,10.04
2022-09-23T02:37:39.686Z,10.37
2022-09-23T02:43:13.619Z,13.06
2022-09-23T02:48:25.024Z,13.27
2022-09-23T02:53:34.472Z,11.03
2022-09-23T02:58:38.042Z,9.43
2022-09-23T03:03:50.331Z,9.51
2022-09-23T03:09:13.908Z,11.87
2022-09-23T03:14:45.279Z,13.07
2022-09-23T03:20:04.997Z,12.54
2022-09-23T03:25:17.859Z,10.33
2022-09-23T03:30:22.197Z,10.09
2022-09-23T03:35:32.157Z,11.91
2022-09-23T03:40:43.856Z,12.84
2022-09-23T03:45:48.539Z,13.49
2022-09-23T03:50:55.050Z,12.08
2022-09-23T03:55:58.974Z,10.06
2022-09-23T04:01:02.978Z,9.90
2022-09-23T04:06:07.444Z,11.79
2022-09-23T04:11:12.094Z,12.62
2022-09-23T04:16:16.268Z,12.73
2022-09-23T04:21:20.249Z,10.90
2022-09-23T04:26:23.983Z,9.24
2022-09-23T04:31:29.240Z,9.17
2022-09-23T04:36:33.364Z,10.88
2022-09-23T04:41:40.288Z,11.73
2022-09-23T04:46:48.530Z,12.46
2022-09-23T04:51:52.923Z,12.76
2022-09-23T04:56:59.304Z,11.12
2022-09-23T05:02:03.192Z,9.60
2022-09-23T05:07:06.854Z,9.67
2022-09-23T05:12:10.885Z,12.09
2022-09-23T05:17:15.064Z,13.20
2022-09-23T05:22:18.736Z,12.95
2022-09-23T05:27:22.769Z,10.84
2022-09-23T05:32:26.894Z,9.39
2022-09-23T05:37:31.958Z,10.34
2022-09-23T05:42:36.186Z,12.67
2022-09-23T05:47:40.423Z,13.58
2022-09-23T05:52:44.342Z,13.56
2022-09-23T05:57:48.387Z,11.68
2022-09-23T06:02:52.444Z,10.88
2022-09-23T06:07:57.304Z,12.95
2022-09-23T06:13:01.473Z,14.24
2022-09-23T06:18:06.937Z,13.63
2022-09-23T06:23:12.115Z,12.37
2022-09-23T06:28:15.971Z,14.34
2022-09-23T06:33:29.661Z,14.41
2022-09-23T06:38:45.223Z,12.36
2022-09-23T06:43:49.414Z,13.38
2022-09-23T06:48:53.235Z,14.61
2022-09-23T06:53:57.169Z,14.55
2022-09-23T06:59:00.884Z,13.13
2022-09-23T07:04:04.882Z,13.77
2022-09-23T07:09:10.130Z,15.54
2022-09-23T07:14:14.794Z,15.76
2022-09-23T07:19:18.707Z,14.18
2022-09-23T07:24:23.411Z,14.86
2022-09-23T07:29:27.059Z,16.23
2022-09-23T07:34:30.695Z,15.31
2022-09-23T07:39:34.343Z,15.54
2022-09-23T07:44:38.179Z,17.44
2022-09-23T07:49:42.306Z,16.38
2022-09-23T07:54:48.657Z,15.11
2022-09-23T07:59:52.716Z,15.54
2022-09-23T08:04:56.644Z,17.49
2022-09-23T08:10:01.474Z,17.59
2022-09-23T08:15:07.015Z,16.25
2022-09-23T08:20:31.966Z,17.15
2022-09-23T08:25:35.897Z,17.50
2022-09-23T08:30:40.697Z,16.22
2022-09-23T08:35:45.068Z,16.43
2022-09-23T08:40:50.721Z,18.17
2022-09-23T08:46:01.182Z,17.13
2022-09-23T08:51:11.865Z,15.78
2022-09-23T08:56:22.826Z,15.29
2022-09-23T09:01:48.098Z,17.45
2022-09-23T09:07:36.582Z,18.29
2022-09-23T09:12:47.488Z,16.90
2022-09-23T09:18:00.125Z,17.35
2022-09-23T09:23:23.578Z,18.57
2022-09-23T09:28:46.936Z,17.31
2022-09-23T09:34:12.586Z,16.33
2022-09-23T09:39:17.749Z,17.81
2022-09-23T09:44:42.672Z,18.65
2022-09-23T09:50:07.783Z,17.42
2022-09-23T09:55:14.680Z,17.17
2022-09-23T10:00:43.604Z,18.18
2022-09-23T10:05:47.298Z,20.21
2022-09-23T10:11:11.813Z,19.76
2022-09-23T10:16:16.221Z,19.58
2022-09-23T10:21:27.883Z,19.69
2022-09-23T10:26:41.732Z,19.33
2022-09-23T10:31:45.941Z,18.85
2022-09-23T10:37:34.622Z,18.39
2022-09-23T10:43:38.256Z,17.61
2022-09-23T10:49:38.197Z,17.06
2022-09-23T10:55:24.514Z,16.57
2022-09-23T11:01:04.630Z,16.20
2022-09-23T11:07:07.970Z,16.07
2022-09-23T11:12:54.318Z,15.96
2022-09-23T11:18:36.058Z,15.96
2022-09-23T11:24:48.488Z,15.93
2022-09-23T11:30:20.532Z,15.80
2022-09-23T11:35:42.130Z,15.61
2022-09-23T11:40:55.108Z,15.36
2022-09-23T11:46:21.686Z,15.12
2022-09-23T11:51:29.949Z,14.87
2022-09-23T11:56:49.190Z,14.63
2022-09-23T12:02:17.917Z,14.37
2022-09-23T12:07:54.760Z,14.13
2022-09-23T12:13:19.498Z,14.74
2022-09-23T12:18:46.432Z,17.55
2022-09-23T12:24:05.847Z,17.43
2022-09-23T12:29:15.577Z,16.03
2022-09-23T12:34:52.486Z,15.26
2022-09-23T12:40:06.952Z,14.82
2022-09-23T12:45:36.157Z,14.62
2022-09-23T12:51:16.864Z,14.52
2022-09-23T12:56:43.937Z,15.03
2022-09-23T13:01:48.950Z,17.98
2022-09-23T13:07:45.864Z,18.28
2022-09-23T13:12:53.042Z,17.06
2022-09-23T13:18:21.873Z,16.58
2022-09-23T13:23:33.717Z,16.28
2022-09-23T13:28:54.244Z,16.07
2022-09-23T13:34:07.251Z,16.01
2022-09-23T13:39:25.226Z,16.09
2022-09-23T13:44:30.150Z,16.31
2022-09-23T13:49:37.428Z,16.59
2022-09-23T13:54:51.374Z,16.82
2022-09-23T13:59:55.423Z,17.03
2022-09-23T14:04:59.522Z,17.18
2022-09-23T14:10:07.203Z,17.25
2022-09-23T14:15:19.375Z,17.32
2022-09-23T14:20:23.834Z,17.25
2022-09-23T14:25:30.358Z,16.94
2022-09-23T14:30:35.602Z,16.51
2022-09-23T14:35:46.875Z,16.19
2022-09-23T14:41:18.272Z,15.94
2022-09-23T14:46:25.490Z,15.65
2022-09-23T14:51:36.401Z,15.40
2022-09-23T14:56:44.240Z,15.11
2022-09-23T15:01:48.313Z,14.87
2022-09-23T15:07:18.218Z,14.72
2022-09-23T15:12:23.093Z,14.52
2022-09-23T15:17:38.186Z,14.38
2022-09-23T15:22:48.958Z,15.53
2022-09-23T15:28:13.050Z,18.00
2022-09-23T15:33:18.484Z,18.10
2022-09-23T15:38:24.651Z,16.51
2022-09-23T15:43:35.032Z,15.51
2022-09-23T15:49:05.288Z,14.90
2022-09-23T15:54:15.939Z,14.46
2022-09-23T15:59:22.096Z,14.17
2022-09-23T16:04:26.556Z,15.12
2022-09-23T16:09:32.030Z,17.65
2022-09-23T16:14:36.041Z,17.96
2022-09-23T16:19:40.771Z,16.55
2022-09-23T16:24:47.862Z,15.62
2022-09-23T16:29:52.329Z,14.91
2022-09-23T16:34:59.022Z,15.35
2022-09-23T16:40:04.576Z,17.73
2022-09-23T16:45:10.443Z,18.07
2022-09-23T16:50:17.683Z,16.52
2022-09-23T16:55:22.400Z,15.55
2022-09-23T17:00:45.700Z,14.91
2022-09-23T17:05:50.972Z,16.21
2022-09-23T17:10:59.412Z,17.87
2022-09-23T17:16:03.656Z,18.42
2022-09-23T17:21:37.350Z,16.65
2022-09-23T17:26:42.753Z,15.24
2022-09-23T17:31:47.173Z,15.65
2022-09-23T17:36:51.163Z,18.02
2022-09-23T17:41:58.863Z,18.16
2022-09-23T17:47:04.129Z,16.47
2022-09-23T17:52:08.252Z,15.41
2022-09-23T17:57:13.524Z,15.97
2022-09-23T18:02:17.774Z,18.06
2022-09-23T18:07:25.663Z,18.24
2022-09-23T18:12:36.682Z,16.49
2022-09-23T18:17:42.153Z,15.41
2022-09-23T18:22:46.033Z,16.73
2022-09-23T18:27:49.914Z,18.36
2022-09-23T18:32:53.916Z,17.44
2022-09-23T18:37:59.681Z,15.93
2022-09-23T18:43:04.550Z,16.08
2022-09-23T18:48:28.844Z,18.20
2022-09-23T18:53:36.411Z,17.81
2022-09-23T18:58:53.035Z,15.95
2022-09-23T19:03:58.515Z,16.07
2022-09-23T19:09:03.905Z,18.10
2022-09-23T19:14:22.602Z,18.10
2022-09-23T19:19:30.652Z,16.24
2022-09-23T19:24:34.536Z,15.14
2022-09-23T19:29:41.254Z,16.24
2022-09-23T19:34:46.775Z,17.71
2022-09-23T19:39:51.113Z,18.22
2022-09-23T19:44:55.519Z,16.55
2022-09-23T19:49:59.304Z,15.26
2022-09-23T19:55:04.812Z,15.48
2022-09-23T20:00:10.287Z,17.50
2022-09-23T20:05:18.420Z,18.31
2022-09-23T20:10:24.239Z,18.00
2022-09-23T20:15:29.657Z,16.11
2022-09-23T20:20:33.906Z,15.25
2022-09-23T20:26:06.205Z,16.81
2022-09-23T20:31:16.858Z,17.85
2022-09-23T20:36:20.940Z,17.30
2022-09-23T20:41:27.009Z,15.68
2022-09-23T20:46:32.286Z,15.59
2022-09-23T20:51:37.710Z,17.28
2022-09-23T20:56:41.935Z,17.59
2022-09-23T21:01:46.183Z,15.97
2022-09-23T21:06:50.199Z,15.53
2022-09-23T21:11:55.446Z,17.15
2022-09-23T21:17:00.010Z,17.88
2022-09-23T21:22:04.431Z,17.52
2022-09-23T21:27:08.420Z,15.65
2022-09-23T21:32:12.190Z,15.33
2022-09-23T21:37:16.010Z,17.23
2022-09-23T21:42:21.989Z,17.89
2022-09-23T21:47:26.407Z,16.30
2022-09-23T21:52:30.551Z,15.05
2022-09-23T21:57:34.313Z,16.13
2022-09-23T22:02:40.312Z,17.45
2022-09-23T22:07:43.969Z,17.49
2022-09-23T22:12:50.469Z,15.75
2022-09-23T22:17:54.280Z,15.34
2022-09-23T22:22:57.908Z,16.93
2022-09-23T22:28:20.876Z,17.54
2022-09-23T22:33:24.598Z,17.18
2022-09-23T22:38:28.729Z,15.49
2022-09-23T22:43:34.091Z,14.47
2022-09-23T22:48:37.808Z,15.83
2022-09-23T22:53:41.742Z,17.20
2022-09-23T22:58:45.865Z,17.02
2022-09-23T23:03:54.170Z,15.08
2022-09-23T23:09:00.275Z,13.73
2022-09-23T23:14:04.636Z,14.32
2022-09-23T23:19:13.966Z,16.24
2022-09-23T23:24:24.753Z,16.89
2022-09-23T23:29:28.578Z,15.03
2022-09-23T23:34:32.812Z,13.68
2022-09-23T23:39:36.743Z,13.90
2022-09-23T23:44:40.759Z,16.03
2022-09-23T23:49:44.804Z,16.10
2022-09-23T23:54:48.825Z,14.26
2022-09-23T23:59:52.654Z,15.03
